Time;durP1;ratioP1;P1;durP2;ratioP2;P2;SDS_P1;SDS_P2;PMS_P1;PMS_P2;Temp;Humidity;BMP_temperature;BMP_pressure;BME280_temperature;BME280_humidity;BME280_pressure;Samples;Min_cycle;Max_cycle;Signal;HPM_P1;HPM_P2
2022/10/09 21:53:05;;;;;;;11.75;9.48;;;;;;;22.67;64.31;101523.91;5114601;27;20388;-83
2022/10/09 21:55:32;;;;;;;10.00;9.00;;;;;;;22.60;64.74;101517.34;5112952;28;20047;-82
2022/10/09 21:58:00;;;;;;;10.00;8.25;;;;;;;22.59;65.30;101521.06;5112993;28;20483;-85
2022/10/09 22:00:27;;;;;;;9.85;8.55;;;;;;;22.58;65.26;101519.34;5113204;28;20044;-82
2022/10/09 22:02:54;;;;;;;9.55;8.60;;;;;;;22.56;65.00;101520.47;5113030;28;20407;-73
2022/10/09 22:05:22;;;;;;;14.20;9.15;;;;;;;22.56;64.86;101525.88;5109499;28;20055;-73
2022/10/09 22:07:49;;;;;;;10.85;9.18;;;;;;;22.55;65.02;101530.41;5111992;28;20414;-72
2022/10/09 22:10:16;;;;;;;9.32;8.32;;;;;;;22.53;64.98;101526.16;5111928;28;20044;-72
2022/10/09 22:12:44;;;;;;;9.57;8.63;;;;;;;22.54;64.95;101522.47;5110988;28;20477;-72
2022/10/09 22:15:11;;;;;;;9.55;8.52;;;;;;;22.53;65.07;101518.06;5110454;28;20043;-72
2022/10/09 22:17:38;;;;;;;11.43;8.18;;;;;;;22.51;65.11;101518.19;5111901;28;20490;-73
2022/10/09 22:20:16;;;;;;;10.35;8.93;;;;;;;22.50;65.10;101511.09;5111678;28;20044;-72
2022/10/09 22:22:43;;;;;;;9.63;8.13;;;;;;;22.50;65.12;101519.19;5111803;28;20044;-72
2022/10/09 22:25:10;;;;;;;9.30;8.32;;;;;;;22.50;65.16;101521.88;5111378;28;20376;-72
2022/10/09 22:27:37;;;;;;;9.25;8.10;;;;;;;22.49;65.19;101512.09;5110811;28;20039;-72
2022/10/09 22:30:05;;;;;;;9.88;8.43;;;;;;;22.50;65.48;101518.34;5110684;28;20044;-72
2022/10/09 22:32:33;;;;;;;10.85;9.15;;;;;;;22.50;65.17;101521.88;5108813;28;20063;-72
2022/10/09 22:35:00;;;;;;;13.32;8.50;;;;;;;22.48;65.21;101518.44;5109538;28;20063;-72
2022/10/09 22:37:27;;;;;;;9.93;8.93;;;;;;;22.49;65.20;101522.03;5111260;28;20040;-72
2022/10/09 22:39:55;;;;;;;9.10;8.18;;;;;;;22.48;65.15;101526.53;5110533;28;20437;-72
2022/10/09 22:42:22;;;;;;;8.77;7.95;;;;;;;22.47;65.21;101527.53;5092359;28;20044;-72
2022/10/09 22:44:49;;;;;;;8.77;7.55;;;;;;;22.48;65.31;101528.38;5110702;28;20051;-72
2022/10/09 22:47:16;;;;;;;9.65;8.52;;;;;;;22.46;65.36;101524.00;5110733;28;20047;-72
2022/10/09 22:49:44;;;;;;;8.43;7.53;;;;;;;22.47;65.29;101524.84;5110988;28;20048;-72
2022/10/09 22:52:11;;;;;;;9.05;8.18;;;;;;;22.47;65.09;101527.53;5110051;28;20052;-72
2022/10/09 22:54:39;;;;;;;11.57;8.50;;;;;;;22.46;65.17;101520.44;5110901;28;20048;-72
2022/10/09 22:57:06;;;;;;;8.30;7.50;;;;;;;22.46;65.18;101520.44;5110271;28;20058;-72
2022/10/09 22:59:33;;;;;;;8.30;7.45;;;;;;;22.46;65.13;101523.16;5110180;28;20059;-72
2022/10/09 23:02:01;;;;;;;8.52;7.65;;;;;;;22.46;65.09;101521.28;5108761;28;20059;-72
2022/10/09 23:04:28;;;;;;;9.55;7.85;;;;;;;22.46;65.07;101521.28;5097025;28;20040;-72
2022/10/09 23:06:57;;;;;;;9.00;8.15;;;;;;;22.46;65.00;101515.03;5095448;28;20062;-72
2022/10/09 23:09:27;;;;;;;9.32;8.30;;;;;;;22.46;65.09;101517.75;5096402;28;20055;-72
2022/10/09 23:11:55;;;;;;;9.13;7.90;;;;;;;22.46;65.08;101515.91;5096778;28;20040;-72
2022/10/09 23:14:24;;;;;;;9.57;7.80;;;;;;;22.46;65.02;101515.03;5096325;28;20047;-72
2022/10/09 23:16:51;;;;;;;9.70;8.23;;;;;;;22.45;65.09;101516.03;5094902;28;20498;-72
2022/10/09 23:19:19;;;;;;;8.27;7.38;;;;;;;22.45;65.09;101519.59;5097121;28;20047;-72
2022/10/09 23:21:46;;;;;;;9.77;7.90;;;;;;;22.46;65.16;101515.91;5096218;28;20062;-72
2022/10/09 23:24:16;;;;;;;8.80;7.97;;;;;;;22.45;65.06;101514.19;5096131;28;20047;-72
2022/10/09 23:26:45;;;;;;;9.10;8.20;;;;;;;22.46;65.12;101509.66;5096384;28;20506;-72
2022/10/09 23:29:16;;;;;;;8.98;8.07;;;;;;;22.46;64.91;101512.34;5096881;28;20055;-72
2022/10/09 23:31:44;;;;;;;8.60;7.45;;;;;;;22.45;65.07;101513.34;5095950;28;20052;-72
2022/10/09 23:34:11;;;;;;;7.93;7.03;;;;;;;22.46;64.97;101515.03;5096670;28;20051;-72
2022/10/09 23:36:39;;;;;;;10.32;8.32;;;;;;;22.45;65.07;101510.66;5095915;28;20055;-72
2022/10/09 23:39:07;;;;;;;11.38;8.02;;;;;;;22.46;64.96;101517.75;5095853;28;20047;-72
2022/10/09 23:41:35;;;;;;;7.60;6.85;;;;;;;22.46;65.08;101515.03;5096646;28;20055;-72
2022/10/09 23:44:02;;;;;;;8.70;7.85;;;;;;;22.44;65.04;101517.91;5096275;28;20040;-72
2022/10/09 23:46:32;;;;;;;8.73;7.32;;;;;;;22.45;64.97;101507.94;5096082;28;20048;-72
2022/10/09 23:49:00;;;;;;;8.20;7.40;;;;;;;22.45;65.07;101510.66;5099531;28;20048;-72
2022/10/09 23:51:28;;;;;;;8.38;7.25;;;;;;;22.45;65.07;101516.91;5093710;28;20052;-72
2022/10/09 23:53:56;;;;;;;8.70;7.80;;;;;;;22.46;64.92;101512.34;5095535;28;20066;-72
2022/10/09 23:56:27;;;;;;;8.80;7.97;;;;;;;22.46;64.88;101504.25;5095466;28;20067;-72
2022/10/09 23:58:56;;;;;;;10.32;7.93;;;;;;;22.45;64.80;101507.94;5096344;28;20055;-71
